sensor_id;sensor_type;location;lat;lon;timestamp;temperature;humidity
76567;DHT22;65428;53.194;6.132;2024-02-04T00:01:19;6.80;99.90
76567;DHT22;65428;53.194;6.132;2024-02-04T00:03:44;6.90;99.90
76567;DHT22;65428;53.194;6.132;2024-02-04T00:06:10;7.10;99.90
76567;DHT22;65428;53.194;6.132;2024-02-04T00:08:36;6.70;99.90
76567;DHT22;65428;53.194;6.132;2024-02-04T00:11:02;6.60;99.90
76567;DHT22;65428;53.194;6.132;2024-02-04T00:13:30;6.60;99.90
76567;DHT22;65428;53.194;6.132;2024-02-04T00:15:56;6.60;99.90
76567;DHT22;65428;53.194;6.132;2024-02-04T00:18:24;7.00;99.90
76567;DHT22;65428;53.194;6.132;2024-02-04T00:20:50;6.40;99.90
76567;DHT22;65428;53.194;6.132;2024-02-04T00:23:15;6.50;99.90
76567;DHT22;65428;53.194;6.132;2024-02-04T00:25:41;6.40;99.90
76567;DHT22;65428;53.194;6.132;2024-02-04T00:28:07;6.40;99.90
76567;DHT22;65428;53.194;6.132;2024-02-04T00:30:37;6.60;99.90
76567;DHT22;65428;53.194;6.132;2024-02-04T00:33:04;6.40;99.90
76567;DHT22;65428;53.194;6.132;2024-02-04T00:35:30;6.00;99.90
76567;DHT22;65428;53.194;6.132;2024-02-04T00:37:56;7.20;99.90
76567;DHT22;65428;53.194;6.132;2024-02-04T00:40:21;6.40;99.90
76567;DHT22;65428;53.194;6.132;2024-02-04T00:42:47;6.30;99.90
76567;DHT22;65428;53.194;6.132;2024-02-04T00:45:13;6.20;99.90
76567;DHT22;65428;53.194;6.132;2024-02-04T00:47:39;6.20;99.90
76567;DHT22;65428;53.194;6.132;2024-02-04T00:50:05;6.50;99.90
76567;DHT22;65428;53.194;6.132;2024-02-04T00:52:31;6.20;99.90
76567;DHT22;65428;53.194;6.132;2024-02-04T00:54:56;6.10;99.90
76567;DHT22;65428;53.194;6.132;2024-02-04T00:57:22;6.10;99.90
76567;DHT22;65428;53.194;6.132;2024-02-04T00:59:47;6.00;99.90
76567;DHT22;65428;53.194;6.132;2024-02-04T01:02:13;6.40;99.90
76567;DHT22;65428;53.194;6.132;2024-02-04T01:04:39;6.00;99.90
76567;DHT22;65428;53.194;6.132;2024-02-04T01:07:04;6.00;99.90
76567;DHT22;65428;53.194;6.132;2024-02-04T01:09:30;5.90;99.90
76567;DHT22;65428;53.194;6.132;2024-02-04T01:11:56;5.90;99.90
76567;DHT22;65428;53.194;6.132;2024-02-04T01:14:21;5.90;99.90
76567;DHT22;65428;53.194;6.132;2024-02-04T01:16:47;5.90;99.90
76567;DHT22;65428;53.194;6.132;2024-02-04T01:19:13;6.10;99.90
76567;DHT22;65428;53.194;6.132;2024-02-04T01:21:38;6.20;99.90
76567;DHT22;65428;53.194;6.132;2024-02-04T01:24:04;5.80;99.90
76567;DHT22;65428;53.194;6.132;2024-02-04T01:26:30;5.80;99.90
76567;DHT22;65428;53.194;6.132;2024-02-04T01:28:56;5.80;99.90
76567;DHT22;65428;53.194;6.132;2024-02-04T01:31:21;5.80;99.90
76567;DHT22;65428;53.194;6.132;2024-02-04T01:33:47;5.80;99.90
76567;DHT22;65428;53.194;6.132;2024-02-04T01:36:12;5.70;99.90
76567;DHT22;65428;53.194;6.132;2024-02-04T01:38:38;5.70;99.90
76567;DHT22;65428;53.194;6.132;2024-02-04T01:41:04;5.70;99.90
76567;DHT22;65428;53.194;6.132;2024-02-04T01:43:29;5.60;99.90
76567;DHT22;65428;53.194;6.132;2024-02-04T01:45:57;5.50;99.90
76567;DHT22;65428;53.194;6.132;2024-02-04T01:48:22;5.60;99.90
76567;DHT22;65428;53.194;6.132;2024-02-04T01:50:50;5.60;99.90
76567;DHT22;65428;53.194;6.132;2024-02-04T01:53:20;6.00;99.90
76567;DHT22;65428;53.194;6.132;2024-02-04T01:55:47;5.60;99.90
76567;DHT22;65428;53.194;6.132;2024-02-04T01:58:15;5.70;99.90
76567;DHT22;65428;53.194;6.132;2024-02-04T02:00:40;5.50;99.90
76567;DHT22;65428;53.194;6.132;2024-02-04T02:03:06;5.70;99.90
76567;DHT22;65428;53.194;6.132;2024-02-04T02:05:34;5.70;99.90
76567;DHT22;65428;53.194;6.132;2024-02-04T02:08:00;5.90;99.90
76567;DHT22;65428;53.194;6.132;2024-02-04T02:10:26;5.70;99.90
76567;DHT22;65428;53.194;6.132;2024-02-04T02:13:29;5.60;99.90
76567;DHT22;65428;53.194;6.132;2024-02-04T02:15:58;6.00;99.90
76567;DHT22;65428;53.194;6.132;2024-02-04T02:18:31;5.70;99.90
76567;DHT22;65428;53.194;6.132;2024-02-04T02:21:07;5.80;99.90
76567;DHT22;65428;53.194;6.132;2024-02-04T02:23:48;5.80;99.90
76567;DHT22;65428;53.194;6.132;2024-02-04T02:26:16;6.10;99.90
76567;DHT22;65428;53.194;6.132;2024-02-04T02:28:42;6.20;99.90
76567;DHT22;65428;53.194;6.132;2024-02-04T02:31:08;6.20;99.90
76567;DHT22;65428;53.194;6.132;2024-02-04T02:33:33;5.80;99.90
76567;DHT22;65428;53.194;6.132;2024-02-04T02:36:02;6.20;99.90
76567;DHT22;65428;53.194;6.132;2024-02-04T02:38:37;5.80;99.90
76567;DHT22;65428;53.194;6.132;2024-02-04T02:41:08;5.90;99.90
76567;DHT22;65428;53.194;6.132;2024-02-04T02:43:34;6.00;99.90
76567;DHT22;65428;53.194;6.132;2024-02-04T02:46:01;6.10;99.90
76567;DHT22;65428;53.194;6.132;2024-02-04T02:48:27;5.90;99.90
76567;DHT22;65428;53.194;6.132;2024-02-04T02:50:54;5.80;99.90
76567;DHT22;65428;53.194;6.132;2024-02-04T02:53:19;5.80;99.90
76567;DHT22;65428;53.194;6.132;2024-02-04T02:55:45;5.80;99.90
76567;DHT22;65428;53.194;6.132;2024-02-04T02:58:13;5.80;99.90
76567;DHT22;65428;53.194;6.132;2024-02-04T03:00:39;6.00;99.90
76567;DHT22;65428;53.194;6.132;2024-02-04T03:03:05;5.70;99.90
76567;DHT22;65428;53.194;6.132;2024-02-04T03:05:30;5.70;99.90
76567;DHT22;65428;53.194;6.132;2024-02-04T03:07:57;5.80;99.90
76567;DHT22;65428;53.194;6.132;2024-02-04T03:10:22;5.70;99.90
76567;DHT22;65428;53.194;6.132;2024-02-04T03:12:48;5.80;99.90
76567;DHT22;65428;53.194;6.132;2024-02-04T03:15:14;6.10;99.90
76567;DHT22;65428;53.194;6.132;2024-02-04T03:17:39;5.80;99.90
76567;DHT22;65428;53.194;6.132;2024-02-04T03:20:05;6.10;99.90
76567;DHT22;65428;53.194;6.132;2024-02-04T03:22:31;5.80;99.90
76567;DHT22;65428;53.194;6.132;2024-02-04T03:24:57;5.80;99.90
76567;DHT22;65428;53.194;6.132;2024-02-04T03:27:23;5.80;99.90
76567;DHT22;65428;53.194;6.132;2024-02-04T03:29:48;5.80;99.90
76567;DHT22;65428;53.194;6.132;2024-02-04T03:32:14;5.90;99.90
76567;DHT22;65428;53.194;6.132;2024-02-04T03:34:43;6.00;99.90
76567;DHT22;65428;53.194;6.132;2024-02-04T03:37:08;5.90;99.90
76567;DHT22;65428;53.194;6.132;2024-02-04T03:39:34;5.90;99.90
76567;DHT22;65428;53.194;6.132;2024-02-04T03:41:59;5.90;99.90
76567;DHT22;65428;53.194;6.132;2024-02-04T03:44:25;6.00;99.90
76567;DHT22;65428;53.194;6.132;2024-02-04T03:46:51;6.00;99.90
76567;DHT22;65428;53.194;6.132;2024-02-04T03:49:17;6.30;99.90
76567;DHT22;65428;53.194;6.132;2024-02-04T03:51:43;6.10;99.90
76567;DHT22;65428;53.194;6.132;2024-02-04T03:54:09;6.40;99.90
76567;DHT22;65428;53.194;6.132;2024-02-04T03:56:35;6.10;99.90
76567;DHT22;65428;53.194;6.132;2024-02-04T03:59:01;6.20;99.90
76567;DHT22;65428;53.194;6.132;2024-02-04T04:01:26;6.50;99.90
76567;DHT22;65428;53.194;6.132;2024-02-04T04:03:52;6.50;99.90
76567;DHT22;65428;53.194;6.132;2024-02-04T04:06:18;6.20;99.90
76567;DHT22;65428;53.194;6.132;2024-02-04T04:08:43;6.30;99.90
76567;DHT22;65428;53.194;6.132;2024-02-04T04:11:10;6.30;99.90
76567;DHT22;65428;53.194;6.132;2024-02-04T04:13:36;6.30;99.90
76567;DHT22;65428;53.194;6.132;2024-02-04T04:16:02;6.30;99.90
76567;DHT22;65428;53.194;6.132;2024-02-04T04:18:28;6.30;99.90
76567;DHT22;65428;53.194;6.132;2024-02-04T04:20:54;6.30;99.90
76567;DHT22;65428;53.194;6.132;2024-02-04T04:23:20;6.40;99.90
76567;DHT22;65428;53.194;6.132;2024-02-04T04:25:45;6.60;99.90
76567;DHT22;65428;53.194;6.132;2024-02-04T04:28:11;6.70;99.90
76567;DHT22;65428;53.194;6.132;2024-02-04T04:30:36;6.60;99.90
76567;DHT22;65428;53.194;6.132;2024-02-04T04:33:02;6.40;99.90
76567;DHT22;65428;53.194;6.132;2024-02-04T04:35:28;6.40;99.90
76567;DHT22;65428;53.194;6.132;2024-02-04T04:37:53;6.40;99.90
76567;DHT22;65428;53.194;6.132;2024-02-04T04:40:19;6.70;99.90
76567;DHT22;65428;53.194;6.132;2024-02-04T04:42:45;6.40;99.90
76567;DHT22;65428;53.194;6.132;2024-02-04T04:45:10;6.60;99.90
76567;DHT22;65428;53.194;6.132;2024-02-04T04:47:37;6.40;99.90
76567;DHT22;65428;53.194;6.132;2024-02-04T04:50:04;6.40;99.90
76567;DHT22;65428;53.194;6.132;2024-02-04T04:52:31;6.50;99.90
76567;DHT22;65428;53.194;6.132;2024-02-04T04:54:57;6.50;99.90
76567;DHT22;65428;53.194;6.132;2024-02-04T04:57:23;6.50;99.90
76567;DHT22;65428;53.194;6.132;2024-02-04T04:59:48;6.50;99.90
76567;DHT22;65428;53.194;6.132;2024-02-04T05:02:14;6.80;99.90
76567;DHT22;65428;53.194;6.132;2024-02-04T05:04:43;6.50;99.90
76567;DHT22;65428;53.194;6.132;2024-02-04T05:07:10;6.40;99.90
76567;DHT22;65428;53.194;6.132;2024-02-04T05:09:36;6.50;99.90
76567;DHT22;65428;53.194;6.132;2024-02-04T05:12:03;6.50;99.90
76567;DHT22;65428;53.194;6.132;2024-02-04T05:14:29;6.50;99.90
76567;DHT22;65428;53.194;6.132;2024-02-04T05:16:54;6.50;99.90
76567;DHT22;65428;53.194;6.132;2024-02-04T05:19:20;6.70;99.90
76567;DHT22;65428;53.194;6.132;2024-02-04T05:21:46;6.60;99.90
76567;DHT22;65428;53.194;6.132;2024-02-04T05:24:12;6.60;99.90
76567;DHT22;65428;53.194;6.132;2024-02-04T05:26:38;6.60;99.90
76567;DHT22;65428;53.194;6.132;2024-02-04T05:29:03;6.60;99.90
76567;DHT22;65428;53.194;6.132;2024-02-04T05:31:29;7.00;99.90
76567;DHT22;65428;53.194;6.132;2024-02-04T05:33:56;6.60;99.90
76567;DHT22;65428;53.194;6.132;2024-02-04T05:36:21;6.80;99.90
76567;DHT22;65428;53.194;6.132;2024-02-04T05:38:47;6.80;99.90
76567;DHT22;65428;53.194;6.132;2024-02-04T05:41:13;6.70;99.90
76567;DHT22;65428;53.194;6.132;2024-02-04T05:43:39;6.70;99.90
76567;DHT22;65428;53.194;6.132;2024-02-04T05:46:05;6.70;99.90
76567;DHT22;65428;53.194;6.132;2024-02-04T05:48:30;6.70;99.90
76567;DHT22;65428;53.194;6.132;2024-02-04T05:50:56;7.00;99.90
76567;DHT22;65428;53.194;6.132;2024-02-04T05:53:22;6.70;99.90
76567;DHT22;65428;53.194;6.132;2024-02-04T05:55:47;6.80;99.90
76567;DHT22;65428;53.194;6.132;2024-02-04T05:58:13;6.70;99.90
76567;DHT22;65428;53.194;6.132;2024-02-04T06:00:40;6.80;99.90
76567;DHT22;65428;53.194;6.132;2024-02-04T06:03:06;7.30;99.90
76567;DHT22;65428;53.194;6.132;2024-02-04T06:05:31;7.10;99.90
76567;DHT22;65428;53.194;6.132;2024-02-04T06:07:57;6.80;99.90
76567;DHT22;65428;53.194;6.132;2024-02-04T06:10:23;6.80;99.90
76567;DHT22;65428;53.194;6.132;2024-02-04T06:12:49;7.20;99.90
76567;DHT22;65428;53.194;6.132;2024-02-04T06:15:15;6.90;99.90
76567;DHT22;65428;53.194;6.132;2024-02-04T06:17:41;6.90;99.90
76567;DHT22;65428;53.194;6.132;2024-02-04T06:20:10;6.90;99.90
76567;DHT22;65428;53.194;6.132;2024-02-04T06:22:36;7.00;99.90
76567;DHT22;65428;53.194;6.132;2024-02-04T06:25:06;7.40;99.90
76567;DHT22;65428;53.194;6.132;2024-02-04T06:27:32;7.00;99.90
76567;DHT22;65428;53.194;6.132;2024-02-04T06:29:57;7.00;99.90
76567;DHT22;65428;53.194;6.132;2024-02-04T06:32:23;6.90;99.90
76567;DHT22;65428;53.194;6.132;2024-02-04T06:34:50;7.10;99.90
76567;DHT22;65428;53.194;6.132;2024-02-04T06:37:16;7.30;99.90
76567;DHT22;65428;53.194;6.132;2024-02-04T06:39:42;7.20;99.90
76567;DHT22;65428;53.194;6.132;2024-02-04T06:42:08;7.20;99.90
76567;DHT22;65428;53.194;6.132;2024-02-04T06:44:34;8.10;99.90
76567;DHT22;65428;53.194;6.132;2024-02-04T06:47:00;7.20;99.90
76567;DHT22;65428;53.194;6.132;2024-02-04T06:49:26;7.20;99.90
76567;DHT22;65428;53.194;6.132;2024-02-04T06:51:52;7.20;99.90
76567;DHT22;65428;53.194;6.132;2024-02-04T06:54:23;7.20;99.90
76567;DHT22;65428;53.194;6.132;2024-02-04T06:56:50;7.20;99.90
76567;DHT22;65428;53.194;6.132;2024-02-04T06:59:15;7.30;99.90
76567;DHT22;65428;53.194;6.132;2024-02-04T07:01:41;7.50;99.90
76567;DHT22;65428;53.194;6.132;2024-02-04T07:04:07;7.90;99.90
76567;DHT22;65428;53.194;6.132;2024-02-04T07:06:32;7.60;99.90
76567;DHT22;65428;53.194;6.132;2024-02-04T07:08:58;7.50;99.90
76567;DHT22;65428;53.194;6.132;2024-02-04T07:11:24;7.40;99.90
76567;DHT22;65428;53.194;6.132;2024-02-04T07:13:50;7.40;99.90
76567;DHT22;65428;53.194;6.132;2024-02-04T07:16:24;7.40;99.90
76567;DHT22;65428;53.194;6.132;2024-02-04T07:18:49;7.40;99.90
76567;DHT22;65428;53.194;6.132;2024-02-04T07:21:15;7.40;99.90
76567;DHT22;65428;53.194;6.132;2024-02-04T07:23:41;7.70;99.90
76567;DHT22;65428;53.194;6.132;2024-02-04T07:26:07;7.40;99.90
76567;DHT22;65428;53.194;6.132;2024-02-04T07:28:32;7.70;99.90
76567;DHT22;65428;53.194;6.132;2024-02-04T07:30:58;7.40;99.90
76567;DHT22;65428;53.194;6.132;2024-02-04T07:33:24;7.50;99.90
76567;DHT22;65428;53.194;6.132;2024-02-04T07:35:49;7.50;99.90
76567;DHT22;65428;53.194;6.132;2024-02-04T07:38:15;7.40;99.90
76567;DHT22;65428;53.194;6.132;2024-02-04T07:40:41;7.70;99.90
76567;DHT22;65428;53.194;6.132;2024-02-04T07:43:06;7.40;99.90
76567;DHT22;65428;53.194;6.132;2024-02-04T07:45:34;7.40;99.90
76567;DHT22;65428;53.194;6.132;2024-02-04T07:48:00;7.40;99.90
76567;DHT22;65428;53.194;6.132;2024-02-04T07:50:26;7.50;99.90
76567;DHT22;65428;53.194;6.132;2024-02-04T07:52:52;7.50;99.90
76567;DHT22;65428;53.194;6.132;2024-02-04T07:55:17;7.50;99.90
76567;DHT22;65428;53.194;6.132;2024-02-04T07:57:43;7.80;99.90
76567;DHT22;65428;53.194;6.132;2024-02-04T08:00:09;7.50;99.90
76567;DHT22;65428;53.194;6.132;2024-02-04T08:02:36;7.60;99.90
76567;DHT22;65428;53.194;6.132;2024-02-04T08:05:03;7.90;99.90
76567;DHT22;65428;53.194;6.132;2024-02-04T08:07:29;7.60;99.90
76567;DHT22;65428;53.194;6.132;2024-02-04T08:09:55;8.00;99.90
76567;DHT22;65428;53.194;6.132;2024-02-04T08:12:21;7.90;99.90
76567;DHT22;65428;53.194;6.132;2024-02-04T08:14:46;7.80;99.90
76567;DHT22;65428;53.194;6.132;2024-02-04T08:17:12;7.70;99.90
76567;DHT22;65428;53.194;6.132;2024-02-04T08:19:38;7.90;99.90
76567;DHT22;65428;53.194;6.132;2024-02-04T08:22:03;8.30;99.90
76567;DHT22;65428;53.194;6.132;2024-02-04T08:24:32;7.80;99.90
76567;DHT22;65428;53.194;6.132;2024-02-04T08:26:58;7.80;99.90
76567;DHT22;65428;53.194;6.132;2024-02-04T08:29:25;7.80;99.90
76567;DHT22;65428;53.194;6.132;2024-02-04T08:31:52;7.80;99.90
76567;DHT22;65428;53.194;6.132;2024-02-04T08:34:18;7.90;99.90
76567;DHT22;65428;53.194;6.132;2024-02-04T08:36:45;7.90;99.90
76567;DHT22;65428;53.194;6.132;2024-02-04T08:39:11;8.00;99.90
76567;DHT22;65428;53.194;6.132;2024-02-04T08:41:37;7.90;99.90
76567;DHT22;65428;53.194;6.132;2024-02-04T08:44:03;8.00;99.90
76567;DHT22;65428;53.194;6.132;2024-02-04T08:46:28;8.00;99.90
76567;DHT22;65428;53.194;6.132;2024-02-04T08:48:54;8.00;99.90
76567;DHT22;65428;53.194;6.132;2024-02-04T08:51:20;8.00;99.90
76567;DHT22;65428;53.194;6.132;2024-02-04T08:53:45;8.00;99.90
76567;DHT22;65428;53.194;6.132;2024-02-04T08:56:11;8.30;99.90
76567;DHT22;65428;53.194;6.132;2024-02-04T08:58:37;8.40;99.90
76567;DHT22;65428;53.194;6.132;2024-02-04T09:01:04;8.30;99.90
76567;DHT22;65428;53.194;6.132;2024-02-04T09:03:30;8.30;99.90
76567;DHT22;65428;53.194;6.132;2024-02-04T09:05:57;8.90;99.90
76567;DHT22;65428;53.194;6.132;2024-02-04T09:08:22;8.10;99.90
76567;DHT22;65428;53.194;6.132;2024-02-04T09:10:48;8.40;99.90
76567;DHT22;65428;53.194;6.132;2024-02-04T09:13:14;8.30;99.90
76567;DHT22;65428;53.194;6.132;2024-02-04T09:15:40;8.20;99.90
76567;DHT22;65428;53.194;6.132;2024-02-04T09:18:05;8.60;99.90
76567;DHT22;65428;53.194;6.132;2024-02-04T09:20:31;8.30;99.90
76567;DHT22;65428;53.194;6.132;2024-02-04T09:22:57;8.50;99.90
76567;DHT22;65428;53.194;6.132;2024-02-04T09:25:24;8.40;99.90
76567;DHT22;65428;53.194;6.132;2024-02-04T09:27:50;8.90;99.90
76567;DHT22;65428;53.194;6.132;2024-02-04T09:30:16;8.60;99.90
76567;DHT22;65428;53.194;6.132;2024-02-04T09:32:42;8.50;99.90
76567;DHT22;65428;53.194;6.132;2024-02-04T09:35:09;8.60;99.90
76567;DHT22;65428;53.194;6.132;2024-02-04T09:37:35;8.50;99.90
76567;DHT22;65428;53.194;6.132;2024-02-04T09:40:01;8.90;99.90
76567;DHT22;65428;53.194;6.132;2024-02-04T09:42:27;8.50;99.90
76567;DHT22;65428;53.194;6.132;2024-02-04T09:44:54;8.90;99.90
76567;DHT22;65428;53.194;6.132;2024-02-04T09:47:20;8.60;99.90
76567;DHT22;65428;53.194;6.132;2024-02-04T09:49:46;8.70;99.90
76567;DHT22;65428;53.194;6.132;2024-02-04T09:52:13;8.80;99.90
76567;DHT22;65428;53.194;6.132;2024-02-04T09:54:48;9.00;99.90
76567;DHT22;65428;53.194;6.132;2024-02-04T09:57:15;9.00;99.90
76567;DHT22;65428;53.194;6.132;2024-02-04T09:59:44;9.20;99.90
76567;DHT22;65428;53.194;6.132;2024-02-04T10:02:10;9.30;99.90
76567;DHT22;65428;53.194;6.132;2024-02-04T10:04:35;9.60;99.90
76567;DHT22;65428;53.194;6.132;2024-02-04T10:07:02;9.30;99.90
76567;DHT22;65428;53.194;6.132;2024-02-04T10:09:28;9.40;99.90
76567;DHT22;65428;53.194;6.132;2024-02-04T10:11:55;9.80;99.90
76567;DHT22;65428;53.194;6.132;2024-02-04T10:14:21;9.80;99.90
76567;DHT22;65428;53.194;6.132;2024-02-04T10:16:46;9.50;99.90
76567;DHT22;65428;53.194;6.132;2024-02-04T10:19:12;9.80;99.90
76567;DHT22;65428;53.194;6.132;2024-02-04T10:21:38;9.60;99.90
76567;DHT22;65428;53.194;6.132;2024-02-04T10:24:05;9.80;99.90
76567;DHT22;65428;53.194;6.132;2024-02-04T10:26:31;9.60;99.90
76567;DHT22;65428;53.194;6.132;2024-02-04T10:28:59;9.60;99.90
76567;DHT22;65428;53.194;6.132;2024-02-04T10:31:26;10.10;99.90
76567;DHT22;65428;53.194;6.132;2024-02-04T10:33:52;10.10;99.90
76567;DHT22;65428;53.194;6.132;2024-02-04T10:36:18;9.70;99.90
76567;DHT22;65428;53.194;6.132;2024-02-04T10:38:44;9.70;99.90
76567;DHT22;65428;53.194;6.132;2024-02-04T10:41:15;9.80;99.90
76567;DHT22;65428;53.194;6.132;2024-02-04T10:43:42;9.70;99.90
76567;DHT22;65428;53.194;6.132;2024-02-04T10:46:18;9.70;99.90
76567;DHT22;65428;53.194;6.132;2024-02-04T10:48:48;9.90;99.90
76567;DHT22;65428;53.194;6.132;2024-02-04T10:51:16;9.70;99.90
76567;DHT22;65428;53.194;6.132;2024-02-04T10:53:44;9.90;99.90
76567;DHT22;65428;53.194;6.132;2024-02-04T10:57:03;10.10;99.90
76567;DHT22;65428;53.194;6.132;2024-02-04T10:58:59;9.80;99.90
76567;DHT22;65428;53.194;6.132;2024-02-04T11:01:28;9.90;99.90
76567;DHT22;65428;53.194;6.132;2024-02-04T11:03:54;9.70;99.90
76567;DHT22;65428;53.194;6.132;2024-02-04T11:06:23;9.70;99.90
76567;DHT22;65428;53.194;6.132;2024-02-04T11:08:50;9.90;99.90
76567;DHT22;65428;53.194;6.132;2024-02-04T11:11:18;9.70;99.90
76567;DHT22;65428;53.194;6.132;2024-02-04T11:13:45;9.80;99.90
76567;DHT22;65428;53.194;6.132;2024-02-04T11:16:46;9.90;99.90
76567;DHT22;65428;53.194;6.132;2024-02-04T11:19:49;9.70;99.90
76567;DHT22;65428;53.194;6.132;2024-02-04T11:22:51;9.70;99.90
76567;DHT22;65428;53.194;6.132;2024-02-04T11:25:40;9.70;99.90
76567;DHT22;65428;53.194;6.132;2024-02-04T11:28:10;9.80;99.90
76567;DHT22;65428;53.194;6.132;2024-02-04T11:30:36;9.80;99.90
76567;DHT22;65428;53.194;6.132;2024-02-04T11:33:06;9.80;99.90
76567;DHT22;65428;53.194;6.132;2024-02-04T11:35:36;9.70;99.90
76567;DHT22;65428;53.194;6.132;2024-02-04T11:38:05;9.80;99.90
76567;DHT22;65428;53.194;6.132;2024-02-04T11:40:34;10.10;99.90
76567;DHT22;65428;53.194;6.132;2024-02-04T11:43:14;10.10;99.90
76567;DHT22;65428;53.194;6.132;2024-02-04T11:45:41;9.60;99.90
76567;DHT22;65428;53.194;6.132;2024-02-04T11:48:08;10.00;99.90
76567;DHT22;65428;53.194;6.132;2024-02-04T11:50:34;9.80;99.90
76567;DHT22;65428;53.194;6.132;2024-02-04T11:53:11;10.20;99.90
76567;DHT22;65428;53.194;6.132;2024-02-04T11:55:39;10.00;99.90
76567;DHT22;65428;53.194;6.132;2024-02-04T11:58:06;10.30;99.90
76567;DHT22;65428;53.194;6.132;2024-02-04T12:00:37;10.10;99.90
76567;DHT22;65428;53.194;6.132;2024-02-04T12:03:07;10.10;99.90
76567;DHT22;65428;53.194;6.132;2024-02-04T12:05:35;10.10;99.90
76567;DHT22;65428;53.194;6.132;2024-02-04T12:08:02;10.50;99.90
76567;DHT22;65428;53.194;6.132;2024-02-04T12:10:29;10.00;99.90
76567;DHT22;65428;53.194;6.132;2024-02-04T12:12:56;10.00;99.90
76567;DHT22;65428;53.194;6.132;2024-02-04T12:15:23;10.90;99.90
76567;DHT22;65428;53.194;6.132;2024-02-04T12:17:48;10.10;99.90
76567;DHT22;65428;53.194;6.132;2024-02-04T12:20:14;9.90;99.90
76567;DHT22;65428;53.194;6.132;2024-02-04T12:22:40;10.00;99.90
76567;DHT22;65428;53.194;6.132;2024-02-04T12:25:06;10.10;99.90
76567;DHT22;65428;53.194;6.132;2024-02-04T12:27:32;10.00;99.90
76567;DHT22;65428;53.194;6.132;2024-02-04T12:29:58;10.30;99.90
76567;DHT22;65428;53.194;6.132;2024-02-04T12:32:24;9.90;99.90
76567;DHT22;65428;53.194;6.132;2024-02-04T12:34:51;10.00;99.90
76567;DHT22;65428;53.194;6.132;2024-02-04T12:37:19;10.00;99.90
76567;DHT22;65428;53.194;6.132;2024-02-04T12:39:46;10.00;99.90
76567;DHT22;65428;53.194;6.132;2024-02-04T12:42:17;10.00;99.90
76567;DHT22;65428;53.194;6.132;2024-02-04T12:44:49;10.10;99.90
76567;DHT22;65428;53.194;6.132;2024-02-04T12:47:19;10.00;99.90
76567;DHT22;65428;53.194;6.132;2024-02-04T12:49:45;10.00;99.90
76567;DHT22;65428;53.194;6.132;2024-02-04T12:52:11;9.70;99.90
76567;DHT22;65428;53.194;6.132;2024-02-04T12:54:41;10.00;99.90
76567;DHT22;65428;53.194;6.132;2024-02-04T12:57:08;9.90;99.90
76567;DHT22;65428;53.194;6.132;2024-02-04T12:59:36;10.20;99.90
76567;DHT22;65428;53.194;6.132;2024-02-04T13:02:07;9.50;99.90
76567;DHT22;65428;53.194;6.132;2024-02-04T13:04:37;10.00;99.90
76567;DHT22;65428;53.194;6.132;2024-02-04T13:07:07;10.40;99.90
76567;DHT22;65428;53.194;6.132;2024-02-04T13:09:38;9.80;99.90
76567;DHT22;65428;53.194;6.132;2024-02-04T13:12:08;9.90;99.90
76567;DHT22;65428;53.194;6.132;2024-02-04T13:14:35;9.80;99.90
76567;DHT22;65428;53.194;6.132;2024-02-04T13:17:02;10.00;99.90
76567;DHT22;65428;53.194;6.132;2024-02-04T13:19:35;9.80;99.90
76567;DHT22;65428;53.194;6.132;2024-02-04T13:22:05;9.80;99.90
76567;DHT22;65428;53.194;6.132;2024-02-04T13:24:32;9.40;99.90
76567;DHT22;65428;53.194;6.132;2024-02-04T13:26:58;9.80;99.90
76567;DHT22;65428;53.194;6.132;2024-02-04T13:29:26;9.40;99.90
76567;DHT22;65428;53.194;6.132;2024-02-04T13:31:52;9.70;99.90
76567;DHT22;65428;53.194;6.132;2024-02-04T13:34:17;10.00;99.90
76567;DHT22;65428;53.194;6.132;2024-02-04T13:36:43;9.50;99.90
76567;DHT22;65428;53.194;6.132;2024-02-04T13:39:09;9.40;99.90
76567;DHT22;65428;53.194;6.132;2024-02-04T13:41:35;9.20;99.90
76567;DHT22;65428;53.194;6.132;2024-02-04T13:44:01;10.10;99.90
76567;DHT22;65428;53.194;6.132;2024-02-04T13:46:27;8.90;99.90
76567;DHT22;65428;53.194;6.132;2024-02-04T13:48:53;9.60;99.90
76567;DHT22;65428;53.194;6.132;2024-02-04T13:51:18;9.40;99.90
76567;DHT22;65428;53.194;6.132;2024-02-04T13:53:44;9.20;99.90
76567;DHT22;65428;53.194;6.132;2024-02-04T13:56:10;9.20;99.90
76567;DHT22;65428;53.194;6.132;2024-02-04T13:58:35;9.10;99.90
76567;DHT22;65428;53.194;6.132;2024-02-04T14:01:01;9.30;99.90
76567;DHT22;65428;53.194;6.132;2024-02-04T14:03:26;9.10;99.90
76567;DHT22;65428;53.194;6.132;2024-02-04T14:05:52;9.10;99.90
76567;DHT22;65428;53.194;6.132;2024-02-04T14:08:20;9.50;99.90
76567;DHT22;65428;53.194;6.132;2024-02-04T14:10:46;9.10;99.90
76567;DHT22;65428;53.194;6.132;2024-02-04T14:13:12;9.10;99.90
76567;DHT22;65428;53.194;6.132;2024-02-04T14:15:38;8.90;99.90
76567;DHT22;65428;53.194;6.132;2024-02-04T14:18:07;9.10;99.90
76567;DHT22;65428;53.194;6.132;2024-02-04T14:20:33;9.00;99.90
76567;DHT22;65428;53.194;6.132;2024-02-04T14:22:58;9.00;99.90
76567;DHT22;65428;53.194;6.132;2024-02-04T14:25:24;9.10;99.90
76567;DHT22;65428;53.194;6.132;2024-02-04T14:27:50;9.00;99.90
76567;DHT22;65428;53.194;6.132;2024-02-04T14:30:16;9.00;99.90
76567;DHT22;65428;53.194;6.132;2024-02-04T14:32:43;8.90;99.90
76567;DHT22;65428;53.194;6.132;2024-02-04T14:35:09;9.10;99.90
76567;DHT22;65428;53.194;6.132;2024-02-04T14:37:36;9.00;99.90
76567;DHT22;65428;53.194;6.132;2024-02-04T14:40:03;9.40;99.90
76567;DHT22;65428;53.194;6.132;2024-02-04T14:42:29;9.00;99.90
76567;DHT22;65428;53.194;6.132;2024-02-04T14:44:55;9.30;99.90
76567;DHT22;65428;53.194;6.132;2024-02-04T14:47:21;9.00;99.90
76567;DHT22;65428;53.194;6.132;2024-02-04T14:49:47;9.30;99.90
76567;DHT22;65428;53.194;6.132;2024-02-04T14:52:14;8.50;99.90
76567;DHT22;65428;53.194;6.132;2024-02-04T14:54:40;9.10;99.90
76567;DHT22;65428;53.194;6.132;2024-02-04T14:57:05;9.20;99.90
76567;DHT22;65428;53.194;6.132;2024-02-04T14:59:31;9.20;99.90
76567;DHT22;65428;53.194;6.132;2024-02-04T15:02:06;9.30;99.90
76567;DHT22;65428;53.194;6.132;2024-02-04T15:04:32;9.00;99.90
76567;DHT22;65428;53.194;6.132;2024-02-04T15:06:58;9.10;99.90
76567;DHT22;65428;53.194;6.132;2024-02-04T15:09:24;9.20;99.90
76567;DHT22;65428;53.194;6.132;2024-02-04T15:11:52;9.00;99.90
76567;DHT22;65428;53.194;6.132;2024-02-04T15:14:18;9.10;99.90
76567;DHT22;65428;53.194;6.132;2024-02-04T15:16:44;9.10;99.90
76567;DHT22;65428;53.194;6.132;2024-02-04T15:19:10;9.10;99.90
76567;DHT22;65428;53.194;6.132;2024-02-04T15:21:36;9.10;99.90
76567;DHT22;65428;53.194;6.132;2024-02-04T15:24:03;9.20;99.90
76567;DHT22;65428;53.194;6.132;2024-02-04T15:26:35;9.20;99.90
76567;DHT22;65428;53.194;6.132;2024-02-04T15:29:06;9.20;99.90
76567;DHT22;65428;53.194;6.132;2024-02-04T15:31:32;9.30;99.90
76567;DHT22;65428;53.194;6.132;2024-02-04T15:34:02;9.30;99.90
76567;DHT22;65428;53.194;6.132;2024-02-04T15:36:29;9.30;99.90
76567;DHT22;65428;53.194;6.132;2024-02-04T15:38:57;9.50;99.90
76567;DHT22;65428;53.194;6.132;2024-02-04T15:41:23;9.40;99.90
76567;DHT22;65428;53.194;6.132;2024-02-04T15:43:49;9.50;99.90